Aérodrome :
LOGIN :

S'inscrire | Disclaimer

   EN    FR    IT 

 










Légende :    VFR   VFR Marginal   IFR   IFR Intensif   IFR Très Intensif
Visi : 
Plafond : 
>= 8 km
>= 3000ft
5 à 8 km
1000 à 3000 ft
1500m à 5 km
500 à 1000 ft
800 à 1500m
200 à 500 ft
< 800m
< 200 ft
Symboles :   Orages  Brouillard  Fortes neiges  Fortes précipitations  Vent > 20 kt
SIGMETs :   Divers  Orages  Givrage  Turbulence  Onde Orograph.  Cendres Volcan.







- Altitude de l'aérodrome : 586 ft
- Code IATA : IEV


UKKK - Zhuliany

DERNIER METAR :
  • 201830Z 15002MPS 100V210 9999 SCT007 OVC038 M05/M06 Q1016 R08/490140 NOSIG

METARs EXPIRÉS :
  • 201800Z 15002MPS 080V200 9999 SCT007 OVC038 M05/M06 Q1016 R08/490140 NOSIG
  • 201730Z 15002MPS 100V220 9999 SCT007 OVC038 M05/M06 Q1017 R08/490140 NOSIG
  • 201700Z 15002MPS 110V190 9999 SCT007 OVC030 M05/M06 Q1017 R08/490140 NOSIG
  • 201630Z 15002MPS 100V200 9999 -SN SCT007 OVC026 M05/M06 Q1017 R08/490140 TEMPO BKN005
  • 201600Z 16002MPS 120V190 9999 -SN FEW007 OVC028 M05/M06 Q1017 R26/490140 NOSIG

TAF TAF UKKK
Valide du 20 à 18h jusqu'au 21 à 18h UTC


201702Z 2018/2118 15003G08MPS 4000 BR OVC007 TXM05/2018Z TNM08/2105Z
TEMPO 2018/2021 1000 -SHSN BR BKN003 SCT015CB
PROB40 2018/2106 -FZDZ OVC001
TEMPO 2021/2108 VRB01MPS 0300 -SN FZFG OVC001
BECMG 2108/2109 30003G08MPS 6000 NSW SCT007 BKN020
Pas de NOTAMs connus pour ce terrain.



MET'MAP, la Météo Aéronautique d'un coup d'oeil ! - Copyright ORBIFLY Décembre 2007 - Disclaimer

ORBIFLY MET'MAP TEAM :

Programmation & Développement : Alexandra Zaïnal
Conception & Développement : Baudouin d'Aumeries
Co-Programmation & Développement : Marc-Olivier Méhu
Soutien technique & logistique : Manuel Goepfert

Contact : metmap@orbifly.com




SOURCES & CREDITS :

   NOAA